Time;durP1;ratioP1;P1;durP2;ratioP2;P2;SDS_P1;SDS_P2;PMS_P1;PMS_P2;Temp;Humidity;BMP_temperature;BMP_pressure;BME280_temperature;BME280_humidity;BME280_pressure;Samples;Min_cycle;Max_cycle;Signal;HPM_P1;HPM_P2
2024/04/25 00:01:30;;;;;;;3.60;1.80;;;;;;;;;;5352139;26;20015;-73
2024/04/25 00:03:57;;;;;;;3.92;1.60;;;;;;;;;;5362961;26;20078;-73
2024/04/25 00:06:23;;;;;;;3.45;2.05;;;;;;;;;;5349542;26;20004;-73
2024/04/25 00:08:49;;;;;;;3.35;2.00;;;;;;;;;;5354804;26;20021;-73
2024/04/25 00:11:17;;;;;;;5.20;2.00;;;;;;;;;;5339247;26;20004;-73
2024/04/25 00:13:43;;;;;;;3.22;1.85;;;;;;;;;;5363052;26;20331;-73
2024/04/25 00:16:10;;;;;;;3.72;1.88;;;;;;;;;;5370573;26;20089;-73
2024/04/25 00:18:36;;;;;;;4.13;2.08;;;;;;;;;;5357643;26;20033;-73
2024/04/25 00:21:02;;;;;;;3.72;2.05;;;;;;;;;;5342469;26;20019;-73
2024/04/25 00:23:28;;;;;;;3.78;1.75;;;;;;;;;;5372320;26;20011;-73
2024/04/25 00:25:54;;;;;;;3.97;1.77;;;;;;;;;;5360377;26;20078;-73
2024/04/25 00:28:20;;;;;;;3.05;1.83;;;;;;;;;;5357600;26;20002;-73
2024/04/25 00:30:47;;;;;;;3.38;1.70;;;;;;;;;;5364581;26;20093;-73
2024/04/25 00:33:13;;;;;;;3.95;2.05;;;;;;;;;;5372208;26;20006;-73
2024/04/25 00:35:39;;;;;;;3.75;2.03;;;;;;;;;;5366235;26;20073;-73
2024/04/25 00:38:04;;;;;;;2.75;1.58;;;;;;;;;;5356112;26;20301;-73
2024/04/25 00:40:31;;;;;;;4.07;2.03;;;;;;;;;;5351980;26;20027;-74
2024/04/25 00:42:59;;;;;;;2.63;1.45;;;;;;;;;;5357451;26;20458;-73
2024/04/25 00:45:25;;;;;;;4.40;1.70;;;;;;;;;;5355989;26;20037;-73
2024/04/25 00:47:52;;;;;;;4.18;1.98;;;;;;;;;;5363047;26;20019;-73
2024/04/25 00:50:18;;;;;;;3.78;1.98;;;;;;;;;;5362108;26;20030;-73
2024/04/25 00:52:45;;;;;;;3.70;1.65;;;;;;;;;;5349863;26;20011;-73
2024/04/25 00:55:11;;;;;;;4.18;2.10;;;;;;;;;;5357290;26;20015;-73
2024/04/25 00:57:37;;;;;;;5.10;2.38;;;;;;;;;;5364656;26;20009;-73
2024/04/25 01:00:04;;;;;;;2.83;1.77;;;;;;;;;;5348779;26;20396;-73
2024/04/25 01:02:30;;;;;;;3.65;2.05;;;;;;;;;;5351557;26;20116;-73
2024/04/25 01:04:59;;;;;;;4.38;2.42;;;;;;;;;;5362960;26;20060;-74
2024/04/25 01:07:25;;;;;;;3.40;1.98;;;;;;;;;;5367750;26;20115;-73
2024/04/25 01:09:51;;;;;;;3.83;2.40;;;;;;;;;;5354580;26;19997;-74
2024/04/25 01:12:17;;;;;;;4.30;2.15;;;;;;;;;;5342469;26;20005;-73
2024/04/25 01:14:43;;;;;;;3.55;1.95;;;;;;;;;;5367962;26;20064;-73
2024/04/25 01:17:09;;;;;;;4.13;2.30;;;;;;;;;;5366657;26;20000;-73
2024/04/25 01:19:35;;;;;;;4.53;2.50;;;;;;;;;;5353003;26;20016;-73
2024/04/25 01:22:01;;;;;;;3.78;1.98;;;;;;;;;;5359430;26;20326;-73
2024/04/25 01:24:28;;;;;;;3.95;2.08;;;;;;;;;;5368100;26;20021;-75
2024/04/25 01:26:54;;;;;;;4.00;2.10;;;;;;;;;;5357257;26;20016;-74
2024/04/25 01:29:20;;;;;;;2.90;1.92;;;;;;;;;;5351331;26;20333;-73
2024/04/25 01:31:47;;;;;;;4.25;2.05;;;;;;;;;;5344134;26;20012;-73
2024/04/25 01:34:13;;;;;;;5.13;2.33;;;;;;;;;;5356843;26;20485;-73
2024/04/25 01:36:42;;;;;;;4.20;2.13;;;;;;;;;;5356254;26;20036;-73
2024/04/25 01:39:08;;;;;;;4.75;2.30;;;;;;;;;;5353252;26;20443;-74
2024/04/25 01:41:34;;;;;;;5.13;2.88;;;;;;;;;;5363210;26;20001;-74
2024/04/25 01:44:00;;;;;;;7.50;2.53;;;;;;;;;;5361423;26;20015;-73
2024/04/25 01:46:26;;;;;;;4.75;2.58;;;;;;;;;;5361849;26;20021;-74
2024/04/25 01:48:52;;;;;;;4.95;2.90;;;;;;;;;;5360434;26;20436;-74
2024/04/25 01:51:18;;;;;;;7.60;2.75;;;;;;;;;;5348154;26;19996;-73
2024/04/25 01:53:45;;;;;;;4.95;2.65;;;;;;;;;;5359951;26;20503;-74
2024/04/25 01:56:11;;;;;;;5.45;2.78;;;;;;;;;;5356613;26;20000;-74
2024/04/25 01:58:37;;;;;;;5.88;3.10;;;;;;;;;;5361008;26;20012;-73
2024/04/25 02:01:03;;;;;;;5.80;2.65;;;;;;;;;;5369288;26;20004;-73
2024/04/25 02:03:29;;;;;;;6.20;2.47;;;;;;;;;;5350725;26;20346;-73
2024/04/25 02:05:55;;;;;;;5.90;2.92;;;;;;;;;;5354885;26;20093;-73
2024/04/25 02:08:21;;;;;;;4.50;2.25;;;;;;;;;;5348944;26;20319;-74
2024/04/25 02:10:47;;;;;;;5.07;2.70;;;;;;;;;;5354747;26;20471;-73
2024/04/25 02:13:13;;;;;;;5.90;2.70;;;;;;;;;;5353795;26;20016;-73
2024/04/25 02:15:39;;;;;;;4.63;2.58;;;;;;;;;;5361992;26;20011;-73
2024/04/25 02:18:05;;;;;;;5.82;2.58;;;;;;;;;;5341329;26;20016;-73
2024/04/25 02:26:07;;;;;;;5.82;2.60;;;;;;;;;;5355226;26;20032;-73
2024/04/25 02:28:33;;;;;;;5.40;2.97;;;;;;;;;;5365523;26;20011;-74
2024/04/25 02:31:00;;;;;;;4.63;2.63;;;;;;;;;;5353748;26;20001;-73
2024/04/25 02:33:26;;;;;;;5.38;2.95;;;;;;;;;;5365612;26;20067;-74
2024/04/25 02:35:52;;;;;;;5.43;2.67;;;;;;;;;;5358746;26;20036;-73
2024/04/25 02:38:19;;;;;;;4.53;2.65;;;;;;;;;;5367207;26;20008;-73
2024/04/25 02:40:45;;;;;;;6.38;3.28;;;;;;;;;;5355435;26;20277;-73
2024/04/25 02:43:11;;;;;;;5.28;2.83;;;;;;;;;;5360428;26;20091;-73
2024/04/25 02:45:36;;;;;;;6.43;3.67;;;;;;;;;;5358871;26;20015;-73
2024/04/25 02:48:03;;;;;;;5.65;3.10;;;;;;;;;;5357209;26;19997;-74
2024/04/25 02:50:29;;;;;;;5.28;3.05;;;;;;;;;;5357177;26;20056;-73
2024/04/25 02:52:55;;;;;;;5.70;3.10;;;;;;;;;;5351118;26;20072;-73
2024/04/25 02:55:22;;;;;;;6.43;3.17;;;;;;;;;;5362776;26;20039;-74
2024/04/25 02:57:47;;;;;;;6.85;3.60;;;;;;;;;;5342896;26;20004;-73
2024/04/25 03:00:14;;;;;;;7.25;3.30;;;;;;;;;;5351672;26;20078;-73
2024/04/25 03:02:40;;;;;;;8.13;4.13;;;;;;;;;;5359226;26;20001;-74
2024/04/25 03:05:06;;;;;;;5.05;2.80;;;;;;;;;;5346616;26;19997;-74
2024/04/25 03:07:33;;;;;;;6.22;3.15;;;;;;;;;;5366593;26;20026;-73
2024/04/25 03:09:59;;;;;;;6.43;3.35;;;;;;;;;;5352987;26;20068;-74
2024/04/25 03:12:25;;;;;;;7.70;3.40;;;;;;;;;;5364114;26;20077;-73
2024/04/25 03:14:51;;;;;;;6.38;3.58;;;;;;;;;;5346603;26;20049;-74
2024/04/25 03:17:17;;;;;;;6.35;3.55;;;;;;;;;;5367635;26;20130;-73
2024/04/25 03:19:44;;;;;;;7.35;3.90;;;;;;;;;;5356964;26;20011;-73
2024/04/25 03:22:10;;;;;;;7.68;4.53;;;;;;;;;;5358302;26;20004;-73
2024/04/25 03:24:36;;;;;;;7.28;3.97;;;;;;;;;;5363197;26;20415;-74
2024/04/25 03:27:02;;;;;;;8.18;4.28;;;;;;;;;;5336118;26;20218;-73
2024/04/25 03:29:28;;;;;;;8.10;4.25;;;;;;;;;;5357371;26;20012;-73
2024/04/25 03:31:54;;;;;;;8.80;4.35;;;;;;;;;;5354799;26;20358;-73
2024/04/25 03:34:20;;;;;;;6.38;3.17;;;;;;;;;;5362642;26;20389;-73
2024/04/25 03:36:46;;;;;;;5.97;2.97;;;;;;;;;;5343578;26;20092;-73
2024/04/25 03:39:19;;;;;;;8.32;4.10;;;;;;;;;;5366001;26;20071;-74
2024/04/25 03:41:45;;;;;;;9.20;4.50;;;;;;;;;;5356281;26;20005;-74
2024/04/25 03:44:11;;;;;;;8.75;4.10;;;;;;;;;;5364410;26;20515;-73
2024/04/25 03:46:37;;;;;;;7.50;3.38;;;;;;;;;;5361096;26;20005;-73
2024/04/25 03:49:03;;;;;;;6.97;3.58;;;;;;;;;;5356490;26;20004;-73
2024/04/25 03:51:29;;;;;;;6.82;3.75;;;;;;;;;;5363085;26;20308;-73
2024/04/25 03:53:55;;;;;;;7.90;4.18;;;;;;;;;;5363828;26;20010;-74
2024/04/25 03:56:20;;;;;;;7.72;4.30;;;;;;;;;;5350367;26;20043;-74
2024/04/25 03:58:46;;;;;;;8.60;4.10;;;;;;;;;;5361305;26;20435;-73
2024/04/25 04:01:15;;;;;;;10.75;4.60;;;;;;;;;;5365008;26;20413;-74
2024/04/25 04:03:41;;;;;;;8.40;4.13;;;;;;;;;;5367329;26;20095;-74
2024/04/25 04:06:07;;;;;;;10.57;4.18;;;;;;;;;;5357685;26;19996;-74
2024/04/25 04:08:35;;;;;;;8.27;4.28;;;;;;;;;;5362950;26;20064;-73
2024/04/25 04:11:01;;;;;;;7.78;4.55;;;;;;;;;;5360262;26;20078;-73
2024/04/25 04:13:27;;;;;;;9.10;4.55;;;;;;;;;;5351379;26;20005;-73
2024/04/25 04:15:53;;;;;;;8.63;4.68;;;;;;;;;;5360799;26;20016;-73
2024/04/25 04:18:19;;;;;;;9.27;4.70;;;;;;;;;;5352100;26;20016;-73
2024/04/25 04:20:48;;;;;;;11.43;5.45;;;;;;;;;;5348465;26;20022;-74
2024/04/25 04:23:14;;;;;;;7.85;4.32;;;;;;;;;;5363391;26;20425;-74
2024/04/25 04:25:40;;;;;;;11.23;5.63;;;;;;;;;;5345612;26;20031;-73
2024/04/25 04:28:06;;;;;;;8.52;4.18;;;;;;;;;;5371297;26;20004;-68
2024/04/25 04:30:32;;;;;;;10.82;5.35;;;;;;;;;;5364105;26;20012;-68
2024/04/25 04:32:58;;;;;;;9.38;5.10;;;;;;;;;;5359319;26;20405;-68
2024/04/25 04:35:24;;;;;;;11.07;5.18;;;;;;;;;;5369347;26;20135;-68
2024/04/25 04:37:50;;;;;;;8.65;4.60;;;;;;;;;;5371752;26;20068;-68
2024/04/25 04:40:16;;;;;;;9.18;4.82;;;;;;;;;;5350825;26;20338;-69
2024/04/25 04:42:42;;;;;;;10.73;5.47;;;;;;;;;;5372064;26;20005;-68
2024/04/25 04:45:08;;;;;;;11.63;5.93;;;;;;;;;;5360115;26;20042;-69
2024/04/25 04:47:34;;;;;;;9.13;5.03;;;;;;;;;;5361335;26;20000;-68
2024/04/25 04:50:00;;;;;;;12.40;5.43;;;;;;;;;;5369744;26;20082;-68
2024/04/25 04:52:26;;;;;;;10.68;5.35;;;;;;;;;;5362642;26;20005;-68
2024/04/25 04:54:51;;;;;;;9.43;5.30;;;;;;;;;;5353419;26;20574;-69
2024/04/25 04:57:17;;;;;;;12.25;5.75;;;;;;;;;;5371598;26;20081;-68
2024/04/25 04:59:43;;;;;;;10.40;5.35;;;;;;;;;;5344538;26;20052;-68
2024/04/25 05:02:09;;;;;;;10.70;5.50;;;;;;;;;;5367860;26;20080;-68
2024/04/25 05:04:35;;;;;;;10.55;5.20;;;;;;;;;;5361197;26;20008;-68
2024/04/25 05:07:01;;;;;;;7.47;4.32;;;;;;;;;;5361399;26;20045;-68
2024/04/25 05:09:27;;;;;;;10.40;5.40;;;;;;;;;;5358193;26;20463;-70
2024/04/25 05:11:53;;;;;;;8.23;4.88;;;;;;;;;;5363922;26;19996;-68
2024/04/25 05:14:19;;;;;;;10.07;5.32;;;;;;;;;;5358932;26;20058;-67
2024/04/25 05:16:45;;;;;;;9.38;5.30;;;;;;;;;;5371675;26;20020;-69
2024/04/25 05:19:11;;;;;;;8.52;4.55;;;;;;;;;;5362732;26;20063;-66
2024/04/25 05:21:37;;;;;;;8.50;4.38;;;;;;;;;;5355532;26;20193;-67
2024/04/25 05:24:04;;;;;;;10.32;5.07;;;;;;;;;;5359709;26;20361;-67
2024/04/25 05:26:30;;;;;;;9.07;4.50;;;;;;;;;;5363277;26;20093;-67
2024/04/25 05:28:56;;;;;;;8.20;3.97;;;;;;;;;;5368107;26;20142;-67
2024/04/25 05:31:21;;;;;;;10.43;5.03;;;;;;;;;;5370499;26;20417;-65
2024/04/25 05:33:49;;;;;;;10.07;5.05;;;;;;;;;;5362763;26;20011;-67
2024/04/25 05:36:15;;;;;;;9.02;4.43;;;;;;;;;;5358223;26;20291;-67
2024/04/25 05:38:41;;;;;;;7.55;3.97;;;;;;;;;;5354598;26;20106;-69
2024/04/25 05:41:07;;;;;;;11.57;5.32;;;;;;;;;;5363896;26;20014;-67
2024/04/25 05:43:33;;;;;;;12.20;4.57;;;;;;;;;;5366031;26;19996;-69
2024/04/25 05:45:59;;;;;;;11.25;5.35;;;;;;;;;;5366499;26;20010;-67
2024/04/25 05:48:32;;;;;;;9.25;5.00;;;;;;;;;;5367955;26;20131;-69
2024/04/25 05:50:58;;;;;;;8.15;4.15;;;;;;;;;;5352688;26;20014;-67
2024/04/25 05:53:24;;;;;;;8.60;3.97;;;;;;;;;;5364444;26;20214;-68
2024/04/25 05:55:50;;;;;;;8.23;3.60;;;;;;;;;;5363328;26;20028;-67
2024/04/25 05:58:16;;;;;;;7.13;4.13;;;;;;;;;;5356299;26;20011;-67
2024/04/25 06:00:42;;;;;;;8.55;4.15;;;;;;;;;;5369637;26;20094;-67
2024/04/25 06:03:08;;;;;;;9.82;4.43;;;;;;;;;;5353823;26;20449;-72
2024/04/25 06:05:34;;;;;;;7.13;3.90;;;;;;;;;;5354960;26;20018;-69
2024/04/25 06:08:01;;;;;;;7.13;3.45;;;;;;;;;;5365054;26;20389;-74
2024/04/25 06:10:27;;;;;;;7.50;3.88;;;;;;;;;;5354624;26;20353;-66
2024/04/25 06:12:53;;;;;;;8.30;4.13;;;;;;;;;;5362617;26;20130;-66
2024/04/25 06:15:19;;;;;;;6.78;3.92;;;;;;;;;;5358507;26;20015;-66
2024/04/25 06:17:45;;;;;;;10.25;4.50;;;;;;;;;;5357198;26;20012;-67
2024/04/25 06:20:16;;;;;;;7.75;4.03;;;;;;;;;;5355050;26;20122;-68
2024/04/25 06:22:42;;;;;;;9.00;4.22;;;;;;;;;;5368697;26;20015;-66
2024/04/25 06:25:08;;;;;;;10.45;4.82;;;;;;;;;;5362006;26;20004;-68
2024/04/25 06:27:34;;;;;;;7.50;3.95;;;;;;;;;;5366329;26;20062;-68
2024/04/25 06:30:00;;;;;;;11.32;4.80;;;;;;;;;;5351644;26;20297;-69
2024/04/25 06:32:26;;;;;;;8.57;4.57;;;;;;;;;;5360405;26;20004;-67
2024/04/25 06:34:52;;;;;;;9.18;4.32;;;;;;;;;;5360113;26;20421;-66
2024/04/25 06:37:19;;;;;;;6.78;3.85;;;;;;;;;;5353444;26;20012;-67
2024/04/25 06:39:45;;;;;;;9.27;4.90;;;;;;;;;;5354763;26;20294;-67
2024/04/25 06:42:11;;;;;;;10.20;5.10;;;;;;;;;;5348445;26;20035;-67
2024/04/25 06:44:39;;;;;;;7.90;4.55;;;;;;;;;;5361923;26;20355;-67
2024/04/25 06:47:05;;;;;;;9.45;4.88;;;;;;;;;;5357944;26;20008;-68
2024/04/25 06:49:31;;;;;;;10.25;4.82;;;;;;;;;;5356961;26;20004;-67
2024/04/25 06:51:57;;;;;;;11.48;4.85;;;;;;;;;;5359287;26;20316;-67
2024/04/25 06:54:23;;;;;;;9.07;4.50;;;;;;;;;;5362020;26;20144;-67
2024/04/25 06:56:49;;;;;;;9.77;4.68;;;;;;;;;;5354065;26;20472;-67
2024/04/25 06:59:15;;;;;;;9.07;4.38;;;;;;;;;;5361495;26;20167;-67
2024/04/25 07:01:41;;;;;;;11.43;4.60;;;;;;;;;;5356367;26;20004;-67
2024/04/25 07:04:07;;;;;;;8.85;4.60;;;;;;;;;;5359867;26;20350;-67
2024/04/25 07:06:33;;;;;;;9.82;5.70;;;;;;;;;;5357465;26;20428;-69
2024/04/25 07:09:01;;;;;;;8.73;5.00;;;;;;;;;;5362121;26;20000;-69
2024/04/25 07:11:28;;;;;;;9.38;4.60;;;;;;;;;;5359457;26;20209;-69
2024/04/25 07:13:54;;;;;;;10.18;4.55;;;;;;;;;;5359645;26;20008;-69
2024/04/25 07:16:20;;;;;;;9.82;3.65;;;;;;;;;;5357153;26;20015;-69
2024/04/25 07:18:46;;;;;;;9.70;4.57;;;;;;;;;;5360467;26;20011;-69
2024/04/25 07:21:12;;;;;;;7.03;3.65;;;;;;;;;;5370714;26;20414;-69
2024/04/25 07:23:38;;;;;;;7.75;3.60;;;;;;;;;;5370798;26;20020;-69
2024/04/25 07:26:04;;;;;;;7.15;3.67;;;;;;;;;;5363764;26;20081;-69
2024/04/25 07:28:34;;;;;;;8.20;4.25;;;;;;;;;;5373197;26;20369;-69
2024/04/25 07:31:01;;;;;;;7.53;4.13;;;;;;;;;;5364804;26;20016;-68
2024/04/25 07:33:27;;;;;;;7.20;3.17;;;;;;;;;;5364053;26;20047;-69
2024/04/25 07:35:53;;;;;;;7.18;3.22;;;;;;;;;;5371524;26;20060;-69
2024/04/25 07:38:19;;;;;;;5.32;3.17;;;;;;;;;;5373431;26;20282;-68
2024/04/25 07:40:45;;;;;;;6.50;3.42;;;;;;;;;;5360762;26;20015;-69
2024/04/25 07:43:11;;;;;;;6.38;3.47;;;;;;;;;;5346449;26;20361;-68
2024/04/25 07:45:37;;;;;;;6.05;3.25;;;;;;;;;;5350571;26;20005;-69
2024/04/25 07:48:03;;;;;;;6.55;3.55;;;;;;;;;;5340325;26;20001;-67
2024/04/25 07:50:29;;;;;;;6.68;3.30;;;;;;;;;;5368913;26;20143;-67
2024/04/25 07:52:55;;;;;;;6.05;3.08;;;;;;;;;;5367455;26;20000;-67
2024/04/25 07:55:21;;;;;;;4.93;2.63;;;;;;;;;;5361907;26;20001;-66
2024/04/25 07:57:47;;;;;;;4.82;2.72;;;;;;;;;;5367823;26;20117;-66
2024/04/25 08:00:13;;;;;;;6.13;3.00;;;;;;;;;;5366915;26;20073;-66
2024/04/25 08:02:38;;;;;;;5.15;2.97;;;;;;;;;;5362594;26;20007;-66
2024/04/25 08:05:08;;;;;;;4.43;2.53;;;;;;;;;;5367148;26;20000;-66
2024/04/25 08:07:40;;;;;;;6.63;2.75;;;;;;;;;;5355579;26;19997;-66
2024/04/25 08:10:07;;;;;;;4.10;2.17;;;;;;;;;;5352356;26;19997;-66
2024/04/25 08:12:33;;;;;;;4.30;2.65;;;;;;;;;;5371402;26;20011;-66
2024/04/25 08:14:59;;;;;;;5.05;2.33;;;;;;;;;;5361913;26;20001;-66
2024/04/25 08:17:25;;;;;;;5.90;2.63;;;;;;;;;;5371059;26;20000;-66
2024/04/25 08:19:52;;;;;;;4.95;2.58;;;;;;;;;;5366541;26;20000;-67
2024/04/25 08:22:20;;;;;;;4.53;2.80;;;;;;;;;;5359467;26;20143;-67
2024/04/25 08:24:45;;;;;;;3.97;1.88;;;;;;;;;;5356735;26;20474;-68
2024/04/25 08:27:12;;;;;;;4.90;2.53;;;;;;;;;;5349526;26;20004;-66
2024/04/25 08:29:37;;;;;;;4.18;2.38;;;;;;;;;;5355827;26;19996;-66
2024/04/25 08:32:03;;;;;;;5.10;2.47;;;;;;;;;;5369681;26;20325;-66
2024/04/25 08:34:29;;;;;;;6.93;2.42;;;;;;;;;;5363599;26;20019;-67
2024/04/25 08:36:56;;;;;;;4.15;2.10;;;;;;;;;;5372389;26;20044;-66
2024/04/25 08:39:22;;;;;;;4.47;2.45;;;;;;;;;;5370869;26;20041;-67
2024/04/25 08:41:48;;;;;;;3.75;1.88;;;;;;;;;;5357185;26;19996;-66
2024/04/25 08:44:17;;;;;;;2.60;1.30;;;;;;;;;;5370949;26;19992;-66
2024/04/25 08:46:46;;;;;;;2.65;1.52;;;;;;;;;;5367912;26;20064;-66
2024/04/25 08:49:13;;;;;;;3.13;1.70;;;;;;;;;;5369141;26;19996;-66
2024/04/25 08:51:39;;;;;;;3.03;1.95;;;;;;;;;;5346167;26;20471;-66
2024/04/25 08:54:07;;;;;;;2.65;1.38;;;;;;;;;;5358819;26;20064;-66
2024/04/25 08:56:32;;;;;;;4.80;1.60;;;;;;;;;;5358722;26;20313;-65
2024/04/25 08:58:59;;;;;;;2.53;1.55;;;;;;;;;;5368632;26;20011;-66
2024/04/25 09:01:25;;;;;;;2.92;1.60;;;;;;;;;;5369514;26;20011;-66
2024/04/25 09:03:53;;;;;;;3.08;1.67;;;;;;;;;;5364529;26;20004;-66
2024/04/25 09:06:21;;;;;;;3.65;1.70;;;;;;;;;;5361711;26;20016;-66
2024/04/25 09:08:48;;;;;;;2.83;1.48;;;;;;;;;;5369667;26;20004;-66
2024/04/25 09:11:20;;;;;;;4.53;1.83;;;;;;;;;;5359066;26;20000;-66
2024/04/25 09:13:52;;;;;;;4.88;1.90;;;;;;;;;;5349421;26;20405;-66
2024/04/25 09:16:18;;;;;;;3.38;1.70;;;;;;;;;;5347210;26;20135;-66
2024/04/25 09:18:44;;;;;;;3.22;2.08;;;;;;;;;;5367481;26;20000;-66
2024/04/25 09:21:10;;;;;;;3.50;1.95;;;;;;;;;;5370510;26;20007;-66
2024/04/25 09:23:42;;;;;;;3.13;1.85;;;;;;;;;;5371159;26;20285;-67
2024/04/25 09:26:13;;;;;;;4.72;2.10;;;;;;;;;;5364110;26;20000;-67
2024/04/25 09:28:40;;;;;;;5.47;2.28;;;;;;;;;;5351433;26;20003;-66
2024/04/25 09:31:05;;;;;;;4.18;2.50;;;;;;;;;;5359905;26;20004;-66
2024/04/25 09:33:32;;;;;;;5.18;2.08;;;;;;;;;;5367414;26;20408;-67
2024/04/25 09:35:58;;;;;;;4.80;2.67;;;;;;;;;;5358495;26;20321;-67
2024/04/25 09:38:24;;;;;;;3.25;2.17;;;;;;;;;;5362304;26;20085;-66
2024/04/25 09:40:51;;;;;;;3.97;2.38;;;;;;;;;;5363957;26;20142;-67
2024/04/25 09:43:17;;;;;;;3.97;2.15;;;;;;;;;;5341680;26;20001;-66
2024/04/25 09:45:43;;;;;;;2.33;1.40;;;;;;;;;;5365133;26;19996;-66
2024/04/25 09:48:23;;;;;;;2.28;1.52;;;;;;;;;;5354559;26;20127;-66
2024/04/25 09:50:50;;;;;;;3.17;1.65;;;;;;;;;;5364669;26;20067;-66
2024/04/25 09:53:19;;;;;;;4.18;2.40;;;;;;;;;;5368334;26;20289;-66
2024/04/25 09:55:46;;;;;;;4.90;3.13;;;;;;;;;;5357317;26;20012;-66
2024/04/25 09:58:13;;;;;;;7.70;3.97;;;;;;;;;;5356585;26;20455;-66
2024/04/25 10:00:40;;;;;;;6.18;3.90;;;;;;;;;;5358069;26;20015;-66
2024/04/25 10:03:05;;;;;;;6.78;3.92;;;;;;;;;;5343785;26;20094;-67
2024/04/25 10:05:32;;;;;;;8.23;4.63;;;;;;;;;;5360762;26;20401;-66
2024/04/25 10:07:58;;;;;;;8.77;3.80;;;;;;;;;;5342618;26;19996;-66
2024/04/25 10:10:26;;;;;;;6.90;3.97;;;;;;;;;;5361591;26;20011;-66
2024/04/25 10:12:52;;;;;;;7.22;4.13;;;;;;;;;;5358876;26;20052;-67
2024/04/25 10:15:26;;;;;;;7.70;4.43;;;;;;;;;;5355412;26;20012;-67
2024/04/25 10:17:51;;;;;;;6.60;3.80;;;;;;;;;;5350616;26;20011;-67
2024/04/25 10:20:18;;;;;;;6.72;3.13;;;;;;;;;;5360708;26;20000;-66
2024/04/25 10:22:54;;;;;;;5.50;3.30;;;;;;;;;;5365225;26;20004;-67
2024/04/25 10:25:21;;;;;;;2.67;1.65;;;;;;;;;;5356732;26;20028;-67
2024/04/25 10:28:03;;;;;;;3.10;2.00;;;;;;;;;;5368816;26;20313;-66
2024/04/25 10:30:30;;;;;;;3.20;1.80;;;;;;;;;;5364919;26;20321;-66
2024/04/25 10:32:56;;;;;;;2.40;1.67;;;;;;;;;;5368953;26;19996;-67
2024/04/25 10:35:22;;;;;;;4.45;2.60;;;;;;;;;;5364737;26;20466;-67
2024/04/25 10:37:50;;;;;;;3.70;2.33;;;;;;;;;;5368441;26;20020;-67
2024/04/25 10:40:16;;;;;;;4.88;2.72;;;;;;;;;;5353585;26;20011;-66
2024/04/25 10:42:43;;;;;;;3.70;2.22;;;;;;;;;;5373309;26;20205;-67
2024/04/25 10:45:09;;;;;;;5.35;2.97;;;;;;;;;;5363049;26;20429;-67
2024/04/25 10:47:35;;;;;;;4.88;2.65;;;;;;;;;;5356872;26;20015;-68
2024/04/25 10:50:01;;;;;;;4.65;2.50;;;;;;;;;;5361269;26;20039;-67
2024/04/25 10:52:27;;;;;;;4.50;2.22;;;;;;;;;;5356625;26;20000;-67
2024/04/25 10:54:53;;;;;;;4.80;2.50;;;;;;;;;;5365865;26;20012;-67
2024/04/25 10:57:19;;;;;;;3.80;2.13;;;;;;;;;;5357539;26;20034;-66
2024/04/25 10:59:45;;;;;;;5.40;2.45;;;;;;;;;;5360744;26;20027;-66
2024/04/25 11:02:11;;;;;;;4.43;2.40;;;;;;;;;;5356734;26;20008;-66
2024/04/25 11:04:38;;;;;;;4.88;2.60;;;;;;;;;;5360297;26;20038;-66
2024/04/25 11:07:05;;;;;;;5.47;2.90;;;;;;;;;;5364829;26;20011;-66
2024/04/25 11:09:36;;;;;;;5.18;2.70;;;;;;;;;;5359125;26;20011;-68
2024/04/25 11:12:02;;;;;;;4.38;2.53;;;;;;;;;;5361009;26;20398;-67
2024/04/25 11:14:28;;;;;;;4.38;2.00;;;;;;;;;;5362810;26;20431;-66
2024/04/25 11:16:54;;;;;;;3.58;1.92;;;;;;;;;;5369266;26;20092;-67
2024/04/25 11:19:20;;;;;;;4.70;2.45;;;;;;;;;;5358627;26;20012;-66
2024/04/25 11:21:46;;;;;;;6.10;2.30;;;;;;;;;;5356842;26;20005;-67
2024/04/25 11:24:16;;;;;;;1.58;0.85;;;;;;;;;;5372571;26;20005;-66
2024/04/25 11:26:43;;;;;;;1.05;0.65;;;;;;;;;;5341395;26;20088;-67
2024/04/25 11:29:09;;;;;;;0.75;0.30;;;;;;;;;;5346977;26;20016;-66
2024/04/25 11:31:36;;;;;;;1.00;0.30;;;;;;;;;;5366841;26;20047;-67
2024/04/25 11:34:03;;;;;;;0.20;0.20;;;;;;;;;;5361355;26;20041;-67
2024/04/25 11:36:29;;;;;;;0.52;0.40;;;;;;;;;;5352485;26;20008;-68
2024/04/25 11:38:55;;;;;;;0.30;0.30;;;;;;;;;;5352750;26;20070;-67
2024/04/25 11:41:21;;;;;;;1.17;0.55;;;;;;;;;;5361750;26;19993;-67
2024/04/25 11:43:47;;;;;;;0.40;0.30;;;;;;;;;;5352653;26;20025;-67
2024/04/25 11:46:13;;;;;;;0.13;0.13;;;;;;;;;;5347712;26;20406;-67
2024/04/25 11:48:50;;;;;;;0.70;0.35;;;;;;;;;;5357916;26;20015;-66
2024/04/25 11:51:15;;;;;;;0.20;0.20;;;;;;;;;;5351510;26;19997;-66
2024/04/25 11:53:42;;;;;;;0.90;0.30;;;;;;;;;;5364665;26;20553;-67
2024/04/25 11:56:08;;;;;;;0.30;0.20;;;;;;;;;;5348304;26;20020;-67
2024/04/25 11:58:34;;;;;;;0.38;0.20;;;;;;;;;;5361804;26;20127;-67
2024/04/25 12:01:00;;;;;;;0.20;0.20;;;;;;;;;;5365074;26;20062;-67
2024/04/25 12:03:26;;;;;;;2.42;0.30;;;;;;;;;;5367507;26;20012;-67
2024/04/25 12:05:52;;;;;;;0.47;0.13;;;;;;;;;;5363498;26;20051;-66
2024/04/25 12:08:18;;;;;;;0.20;0.20;;;;;;;;;;5360561;26;20452;-66
2024/04/25 12:10:44;;;;;;;1.52;0.40;;;;;;;;;;5368290;26;20077;-67
2024/04/25 12:13:10;;;;;;;0.20;0.20;;;;;;;;;;5368337;26;20019;-67
2024/04/25 12:15:38;;;;;;;0.70;0.20;;;;;;;;;;5368421;26;20308;-66
2024/04/25 12:18:04;;;;;;;2.10;0.40;;;;;;;;;;5366751;26;20015;-70
2024/04/25 12:20:30;;;;;;;0.10;0.10;;;;;;;;;;5362529;26;20004;-69
2024/04/25 12:22:56;;;;;;;2.08;0.55;;;;;;;;;;5369232;26;19996;-68
2024/04/25 12:25:22;;;;;;;0.82;0.22;;;;;;;;;;5368729;26;20126;-68
2024/04/25 12:27:48;;;;;;;1.42;0.40;;;;;;;;;;5371245;26;20088;-68
2024/04/25 12:30:14;;;;;;;0.82;0.40;;;;;;;;;;5352625;26;20124;-68
2024/04/25 12:32:40;;;;;;;1.20;0.28;;;;;;;;;;5351854;26;20066;-67
2024/04/25 12:35:06;;;;;;;0.73;0.40;;;;;;;;;;5369114;26;20004;-67
2024/04/25 12:37:32;;;;;;;0.50;0.40;;;;;;;;;;5366021;26;20379;-68
2024/04/25 12:39:58;;;;;;;2.30;0.50;;;;;;;;;;5361786;26;20018;-67
2024/04/25 12:42:26;;;;;;;1.58;0.70;;;;;;;;;;5362240;26;20388;-67
2024/04/25 12:44:51;;;;;;;1.95;0.50;;;;;;;;;;5351528;26;20074;-67
2024/04/25 12:47:18;;;;;;;1.05;0.70;;;;;;;;;;5365419;26;20016;-67
2024/04/25 12:49:44;;;;;;;1.35;0.90;;;;;;;;;;5351792;26;20008;-68
2024/04/25 12:52:10;;;;;;;1.60;0.60;;;;;;;;;;5357070;26;20364;-67
2024/04/25 12:54:37;;;;;;;2.17;0.90;;;;;;;;;;5365340;26;20012;-67
2024/04/25 12:57:03;;;;;;;1.80;0.70;;;;;;;;;;5370564;26;20011;-67
2024/04/25 12:59:30;;;;;;;2.15;1.20;;;;;;;;;;5365862;26;20027;-67
2024/04/25 13:01:56;;;;;;;3.08;1.23;;;;;;;;;;5362636;26;20034;-67
2024/04/25 13:04:25;;;;;;;1.10;0.80;;;;;;;;;;5345554;26;20001;-67
2024/04/25 13:06:50;;;;;;;0.70;0.70;;;;;;;;;;5346441;26;20004;-67
2024/04/25 13:09:16;;;;;;;1.63;0.90;;;;;;;;;;5369200;26;20007;-67
2024/04/25 13:11:45;;;;;;;1.25;0.82;;;;;;;;;;5354571;26;20016;-67
2024/04/25 13:14:11;;;;;;;3.10;1.00;;;;;;;;;;5359344;26;20449;-67
2024/04/25 13:16:37;;;;;;;2.30;1.00;;;;;;;;;;5355530;26;20089;-68
2024/04/25 13:19:03;;;;;;;2.42;0.90;;;;;;;;;;5368613;26;20039;-68
2024/04/25 13:21:29;;;;;;;2.13;1.02;;;;;;;;;;5352252;26;19996;-68
2024/04/25 13:23:56;;;;;;;1.48;0.60;;;;;;;;;;5367520;26;20451;-68
2024/04/25 13:26:29;;;;;;;1.13;0.47;;;;;;;;;;5352436;26;20109;-68
2024/04/25 13:28:55;;;;;;;0.50;0.50;;;;;;;;;;5360601;26;20023;-68
2024/04/25 13:31:21;;;;;;;0.65;0.60;;;;;;;;;;5353300;26;20009;-66
2024/04/25 13:33:47;;;;;;;0.95;0.47;;;;;;;;;;5353489;26;20076;-67
2024/04/25 13:36:13;;;;;;;1.08;0.63;;;;;;;;;;5365158;26;20134;-67
2024/04/25 13:38:41;;;;;;;1.20;0.40;;;;;;;;;;5368230;26;20000;-67
2024/04/25 13:41:07;;;;;;;0.60;0.43;;;;;;;;;;5353833;26;20102;-67
2024/04/25 13:43:33;;;;;;;3.40;0.60;;;;;;;;;;5358974;26;20016;-69
2024/04/25 13:45:59;;;;;;;1.25;0.50;;;;;;;;;;5362730;26;20047;-67
2024/04/25 13:48:25;;;;;;;1.10;0.60;;;;;;;;;;5360208;26;20004;-68
2024/04/25 13:50:51;;;;;;;0.95;0.65;;;;;;;;;;5363182;26;20364;-69
2024/04/25 13:53:19;;;;;;;2.42;0.60;;;;;;;;;;5366946;26;20035;-68
2024/04/25 13:55:45;;;;;;;1.25;0.52;;;;;;;;;;5366761;26;20038;-67
2024/04/25 13:58:11;;;;;;;0.70;0.55;;;;;;;;;;5357523;26;20005;-68
2024/04/25 14:00:37;;;;;;;0.63;0.40;;;;;;;;;;5359163;26;20082;-68
2024/04/25 14:03:03;;;;;;;0.82;0.68;;;;;;;;;;5358523;26;20078;-68
2024/04/25 14:05:29;;;;;;;1.08;0.60;;;;;;;;;;5363610;26;20495;-68
2024/04/25 14:07:55;;;;;;;1.55;0.73;;;;;;;;;;5355029;26;20011;-68
2024/04/25 14:10:21;;;;;;;2.13;0.57;;;;;;;;;;5354061;26;20409;-68
2024/04/25 14:12:49;;;;;;;2.67;0.60;;;;;;;;;;5368171;26;20056;-68
2024/04/25 14:15:15;;;;;;;0.88;0.38;;;;;;;;;;5366365;26;20082;-68
2024/04/25 14:17:42;;;;;;;1.05;0.63;;;;;;;;;;5368872;26;20157;-69
2024/04/25 14:20:10;;;;;;;1.45;0.57;;;;;;;;;;5353379;26;20012;-68
2024/04/25 14:22:36;;;;;;;2.10;0.50;;;;;;;;;;5352100;26;20037;-68
2024/04/25 14:28:43;;;;;;;0.93;0.50;;;;;;;;;;5361512;26;20000;-68
2024/04/25 14:28:52;;;;;;;1.25;0.70;;;;;;;;;;5365014;26;20000;-68
2024/04/25 14:30:42;;;;;;;0.80;0.50;;;;;;;;;;5350176;26;20001;-67
2024/04/25 14:33:08;;;;;;;2.70;0.47;;;;;;;;;;5365470;26;20174;-68
2024/04/25 14:35:34;;;;;;;1.38;0.63;;;;;;;;;;5354846;26;20082;-68
2024/04/25 14:38:00;;;;;;;1.40;0.70;;;;;;;;;;5367415;26;20334;-67
2024/04/25 14:40:28;;;;;;;0.82;0.40;;;;;;;;;;5358831;26;20084;-68
2024/04/25 14:42:54;;;;;;;1.33;0.68;;;;;;;;;;5363660;26;20084;-68
2024/04/25 14:45:20;;;;;;;1.67;0.50;;;;;;;;;;5366173;26;20019;-67